Sunflower Hakata — JL6711 — position and weather

sailwx.info

Track history (hours):
 
Tides and Currents Weather Stations Pressure Air Temp Water Temp Dewpoint Dewpoint Depression Visibility Wind Speed Wind Dir Waves Ship Positions

Sunflower Hakata

Last reported at 2017-Jan-24 13:33 UTC. Time now 2017-Jan-24 15:21 UTC.
Position N 35°07' E 139°43'.

Length 194 m; draft 6.6 m.

Type: Cargo ship. MMSI: 431501764.

Date/timePositionNaut miles runAvg speedWind from/ knotsBaromVisibWave heightAir tempDewpointWater temp
2017-Jan-24 13:33N 35°07' E 139°43'1413.9
2017-Jan-24 12:33N 35°21' E 139°42'1717.2
2017-Jan-24 11:33N 35°37' E 139°50'2 1.7
2017-Jan-24 10:33N 35°37' E 139°48'0 0.0
2017-Jan-24 09:33N 35°37' E 139°48'0 0.0
2017-Jan-24 08:33N 35°37' E 139°48'0 0.0
2017-Jan-24 07:33N 35°37' E 139°48'0 0.0
2017-Jan-24 06:33N 35°37' E 139°48'0 0.0
2017-Jan-24 05:33N 35°37' E 139°48'0 0.0
2017-Jan-24 04:33N 35°37' E 139°48'0 0.0
2017-Jan-24 03:33N 35°37' E 139°48'0 0.0
2017-Jan-24 02:30N 35°37' E 139°48'0 0.0
2017-Jan-24 01:33N 35°37' E 139°48'0 0.0
2017-Jan-24 00:30N 35°37' E 139°48'0 0.0
2017-Jan-23 23:24N 35°37' E 139°48'0 0.2
2017-Jan-23 22:33N 35°37' E 139°48'0 0.0
2017-Jan-23 21:33N 35°37' E 139°48'0 0.0
2017-Jan-23 20:33N 35°37' E 139°48'0 0.0
2017-Jan-23 19:30N 35°37' E 139°48'0 0.0
2017-Jan-23 18:33N 35°37' E 139°48'0 0.0
2017-Jan-23 17:33N 35°37' E 139°48'0 0.0
2017-Jan-23 16:33N 35°37' E 139°48'0 0.0
2017-Jan-23 15:33N 35°37' E 139°48'0 0.0
2017-Jan-23 14:33N 35°37' E 139°48'0 0.0
2017-Jan-23 13:33N 35°37' E 139°48'0 0.0
2017-Jan-23 12:33N 35°37' E 139°48'0 0.0
2017-Jan-23 11:30N 35°37' E 139°48'0 0.0
2017-Jan-23 10:33N 35°37' E 139°48'0 0.0
2017-Jan-23 09:33N 35°37' E 139°48'0 0.0
2017-Jan-23 08:33N 35°37' E 139°48'0 0.0
2017-Jan-23 07:33N 35°37' E 139°48'0 0.0
2017-Jan-23 06:33N 35°37' E 139°48'0 0.0
2017-Jan-23 05:30N 35°37' E 139°48'0 0.0
2017-Jan-23 04:33N 35°37' E 139°48'0 0.0
2017-Jan-23 03:27N 35°37' E 139°48'0 0.0
2017-Jan-23 02:33N 35°37' E 139°48'0 0.0
2017-Jan-23 01:27N 35°37' E 139°48'0 0.0
2017-Jan-23 00:33N 35°37' E 139°48'0 0.0
2017-Jan-22 23:33N 35°37' E 139°48'0 0.0
2017-Jan-22 22:33N 35°37' E 139°48'0 0.0
2017-Jan-22 21:33N 35°37' E 139°48'0 0.1
2017-Jan-22 20:33N 35°37' E 139°48'8 8.4
2017-Jan-22 19:34N 35°29' E 139°52'1313.3
2017-Jan-22 18:33N 35°17' E 139°45'1414.4
2017-Jan-22 17:33N 35°03' E 139°42'24018.5
2017-Jan-22 04:33N 33°60' E 135°01'2222.3
2017-Jan-22 03:33N 34°22' E 135°00'1414.0
2017-Jan-22 02:33N 34°35' E 134°54'10711.7
2017-Jan-21 17:24N 34°06' E 132°49'1922.8
2017-Jan-21 16:33N 33°51' E 132°34'351 7.0
2017-Jan-19 14:08N 34°59' E 139°32'1221.5
2017-Jan-19 13:33N 35°07' E 139°43'1414.3
2017-Jan-19 12:34N 35°21' E 139°42'1616.3
2017-Jan-19 11:33N 35°37' E 139°48'1 0.7
2017-Jan-19 10:32N 35°37' E 139°48'0 0.0
2017-Jan-19 09:29N 35°37' E 139°48'0 0.0
2017-Jan-19 08:20N 35°37' E 139°48'0 0.0
2017-Jan-19 07:32N 35°37' E 139°48'0 0.0
2017-Jan-19 06:32N 35°37' E 139°48'0 0.0
2017-Jan-19 05:32N 35°37' E 139°48'0 0.0
2017-Jan-19 04:32N 35°37' E 139°48'0 0.0
2017-Jan-19 03:32N 35°37' E 139°48'0 0.0
2017-Jan-19 02:32N 35°37' E 139°48'0 0.0
2017-Jan-19 01:32N 35°37' E 139°48'0 0.0
2017-Jan-19 00:32N 35°37' E 139°48'0 0.0
2017-Jan-18 23:32N 35°37' E 139°48'0 0.0
2017-Jan-18 22:32N 35°37' E 139°48'0 0.0
2017-Jan-18 21:23N 35°37' E 139°48'0 0.0
2017-Jan-18 20:33N 35°37' E 139°48'8 8.2
2017-Jan-18 19:34N 35°30' E 139°52'1413.9
2017-Jan-18 18:33N 35°17' E 139°45'1515.1
2017-Jan-18 17:33N 35°02' E 139°41'23918.3
2017-Jan-18 04:30N 34°06' E 134°59'2021.2
2017-Jan-18 03:33N 34°26' E 135°01'1211.4
2017-Jan-18 02:31N 34°34' E 134°52'  
Track history (hours):
 
Tides and Currents Weather Stations Pressure Air Temp Water Temp Dewpoint Dewpoint Depression Visibility Wind Speed Wind Dir Waves Ship Positions

Sunflower Hakata

Last reported at 2017-Jan-24 13:33 UTC. Time now 2017-Jan-24 15:21 UTC.
Position N 35°07' E 139°43'.

Length 194 m; draft 6.6 m.

Type: Cargo ship. MMSI: 431501764.

Date/timePositionNaut miles runAvg speedWind from/ knotsBaromVisibWave heightAir tempDewpointWater temp
2017-Jan-24 13:33N 35°07' E 139°43'1413.9
2017-Jan-24 12:33N 35°21' E 139°42'1717.2
2017-Jan-24 11:33N 35°37' E 139°50'2 1.7
2017-Jan-24 10:33N 35°37' E 139°48'0 0.0
2017-Jan-24 09:33N 35°37' E 139°48'0 0.0
2017-Jan-24 08:33N 35°37' E 139°48'0 0.0
2017-Jan-24 07:33N 35°37' E 139°48'0 0.0
2017-Jan-24 06:33N 35°37' E 139°48'0 0.0
2017-Jan-24 05:33N 35°37' E 139°48'0 0.0
2017-Jan-24 04:33N 35°37' E 139°48'0 0.0
2017-Jan-24 03:33N 35°37' E 139°48'0 0.0
2017-Jan-24 02:30N 35°37' E 139°48'0 0.0
2017-Jan-24 01:33N 35°37' E 139°48'0 0.0
2017-Jan-24 00:30N 35°37' E 139°48'0 0.0
2017-Jan-23 23:24N 35°37' E 139°48'0 0.2
2017-Jan-23 22:33N 35°37' E 139°48'0 0.0
2017-Jan-23 21:33N 35°37' E 139°48'0 0.0
2017-Jan-23 20:33N 35°37' E 139°48'0 0.0
2017-Jan-23 19:30N 35°37' E 139°48'0 0.0
2017-Jan-23 18:33N 35°37' E 139°48'0 0.0
2017-Jan-23 17:33N 35°37' E 139°48'0 0.0
2017-Jan-23 16:33N 35°37' E 139°48'0 0.0
2017-Jan-23 15:33N 35°37' E 139°48'0 0.0
2017-Jan-23 14:33N 35°37' E 139°48'0 0.0
2017-Jan-23 13:33N 35°37' E 139°48'0 0.0
2017-Jan-23 12:33N 35°37' E 139°48'0 0.0
2017-Jan-23 11:30N 35°37' E 139°48'0 0.0
2017-Jan-23 10:33N 35°37' E 139°48'0 0.0
2017-Jan-23 09:33N 35°37' E 139°48'0 0.0
2017-Jan-23 08:33N 35°37' E 139°48'0 0.0
2017-Jan-23 07:33N 35°37' E 139°48'0 0.0
2017-Jan-23 06:33N 35°37' E 139°48'0 0.0
2017-Jan-23 05:30N 35°37' E 139°48'0 0.0
2017-Jan-23 04:33N 35°37' E 139°48'0 0.0
2017-Jan-23 03:27N 35°37' E 139°48'0 0.0
2017-Jan-23 02:33N 35°37' E 139°48'0 0.0
2017-Jan-23 01:27N 35°37' E 139°48'0 0.0
2017-Jan-23 00:33N 35°37' E 139°48'0 0.0
2017-Jan-22 23:33N 35°37' E 139°48'0 0.0
2017-Jan-22 22:33N 35°37' E 139°48'0 0.0
2017-Jan-22 21:33N 35°37' E 139°48'0 0.1
2017-Jan-22 20:33N 35°37' E 139°48'8 8.4
2017-Jan-22 19:34N 35°29' E 139°52'1313.3
2017-Jan-22 18:33N 35°17' E 139°45'1414.4
2017-Jan-22 17:33N 35°03' E 139°42'24018.5
2017-Jan-22 04:33N 33°60' E 135°01'2222.3
2017-Jan-22 03:33N 34°22' E 135°00'1414.0
2017-Jan-22 02:33N 34°35' E 134°54'10711.7
2017-Jan-21 17:24N 34°06' E 132°49'1922.8
2017-Jan-21 16:33N 33°51' E 132°34'351 7.0
2017-Jan-19 14:08N 34°59' E 139°32'1221.5
2017-Jan-19 13:33N 35°07' E 139°43'1414.3
2017-Jan-19 12:34N 35°21' E 139°42'1616.3
2017-Jan-19 11:33N 35°37' E 139°48'1 0.7
2017-Jan-19 10:32N 35°37' E 139°48'0 0.0
2017-Jan-19 09:29N 35°37' E 139°48'0 0.0
2017-Jan-19 08:20N 35°37' E 139°48'0 0.0
2017-Jan-19 07:32N 35°37' E 139°48'0 0.0
2017-Jan-19 06:32N 35°37' E 139°48'0 0.0
2017-Jan-19 05:32N 35°37' E 139°48'0 0.0
2017-Jan-19 04:32N 35°37' E 139°48'0 0.0
2017-Jan-19 03:32N 35°37' E 139°48'0 0.0
2017-Jan-19 02:32N 35°37' E 139°48'0 0.0
2017-Jan-19 01:32N 35°37' E 139°48'0 0.0
2017-Jan-19 00:32N 35°37' E 139°48'0 0.0
2017-Jan-18 23:32N 35°37' E 139°48'0 0.0
2017-Jan-18 22:32N 35°37' E 139°48'0 0.0
2017-Jan-18 21:23N 35°37' E 139°48'0 0.0
2017-Jan-18 20:33N 35°37' E 139°48'8 8.2
2017-Jan-18 19:34N 35°30' E 139°52'1413.9
2017-Jan-18 18:33N 35°17' E 139°45'1515.1
2017-Jan-18 17:33N 35°02' E 139°41'23918.3
2017-Jan-18 04:30N 34°06' E 134°59'2021.2
2017-Jan-18 03:33N 34°26' E 135°01'1211.4
2017-Jan-18 02:31N 34°34' E 134°52'  

Dump ship's entire track history